createdAt,value
2019-02-26T00:00:30.815Z,36.01
2019-02-26T00:01:30.940Z,36.01
2019-02-26T00:02:32.499Z,36.11
2019-02-26T00:03:31.460Z,36.41
2019-02-26T00:04:32.615Z,36.61
2019-02-26T00:05:32.906Z,36.41
2019-02-26T00:06:30.750Z,36.51
2019-02-26T00:07:32.177Z,36.21
2019-02-26T00:08:31.739Z,36.21
2019-02-26T00:09:34.685Z,36.21
2019-02-26T00:10:31.610Z,36.11
2019-02-26T00:11:31.416Z,35.91
2019-02-26T00:12:32.864Z,35.81
2019-02-26T00:13:31.931Z,36.11
2019-02-26T00:14:30.666Z,36.11
2019-02-26T00:15:33.335Z,36.31
2019-02-26T00:16:35.182Z,36.11
2019-02-26T00:17:36.181Z,36.11
2019-02-26T00:18:31.611Z,36.41
2019-02-26T00:19:30.610Z,36.61
2019-02-26T00:20:31.897Z,36.51
2019-02-26T00:21:31.054Z,36.61
2019-02-26T00:22:32.226Z,36.61
2019-02-26T00:23:30.551Z,36.51
2019-02-26T00:24:32.631Z,36.41
2019-02-26T00:25:30.527Z,36.01
2019-02-26T00:26:30.517Z,36.31
2019-02-26T00:27:32.795Z,36.01
2019-02-26T00:28:30.497Z,35.91
2019-02-26T00:29:32.157Z,35.61
2019-02-26T00:30:31.209Z,35.80
2019-02-26T00:31:30.543Z,35.81
2019-02-26T00:32:31.972Z,35.61
2019-02-26T00:33:30.441Z,35.99
2019-02-26T00:34:32.182Z,36.21
2019-02-26T00:35:30.417Z,35.99
2019-02-26T00:36:31.506Z,35.91
2019-02-26T00:37:30.701Z,35.99
2019-02-26T00:38:30.383Z,35.80
2019-02-26T00:39:31.535Z,36.41
2019-02-26T00:40:32.041Z,36.40
2019-02-26T00:41:31.842Z,36.40
2019-02-26T00:42:32.022Z,36.29
2019-02-26T00:43:32.293Z,36.10
2019-02-26T00:44:32.197Z,36.29
2019-02-26T00:45:33.570Z,36.29
2019-02-26T00:46:32.437Z,36.31
2019-02-26T00:47:33.830Z,36.29
2019-02-26T00:48:31.976Z,36.40
2019-02-26T00:49:30.306Z,36.41
2019-02-26T00:50:32.411Z,36.29
2019-02-26T00:51:30.239Z,35.99
2019-02-26T00:52:30.950Z,36.40
2019-02-26T00:53:30.628Z,36.11
2019-02-26T00:54:31.974Z,35.99
2019-02-26T00:55:32.016Z,35.89
2019-02-26T00:56:31.625Z,36.01
2019-02-26T00:57:31.694Z,36.10
2019-02-26T00:58:34.573Z,36.19
2019-02-26T00:59:30.150Z,35.91
2019-02-26T01:00:30.890Z,35.81
2019-02-26T01:01:30.130Z,36.11
2019-02-26T01:02:30.121Z,35.81
2019-02-26T01:03:30.105Z,35.91
2019-02-26T01:04:30.098Z,35.81
2019-02-26T01:05:30.098Z,36.01
2019-02-26T01:06:31.152Z,36.01
2019-02-26T01:07:30.343Z,35.81
2019-02-26T01:08:30.053Z,36.51
2019-02-26T01:09:31.744Z,36.41
2019-02-26T01:10:30.043Z,36.21
2019-02-26T01:11:30.247Z,36.31
2019-02-26T01:12:30.983Z,36.11
2019-02-26T01:13:30.546Z,36.21
2019-02-26T01:14:29.984Z,36.31
2019-02-26T01:15:29.985Z,36.91
2019-02-26T01:16:29.961Z,36.51
2019-02-26T01:17:31.247Z,37.21
2019-02-26T01:18:29.945Z,37.21
2019-02-26T01:19:29.927Z,36.71
2019-02-26T01:20:31.891Z,36.91
2019-02-26T01:21:31.108Z,36.91
2019-02-26T01:22:31.066Z,36.91
2019-02-26T01:23:29.882Z,36.63
2019-02-26T01:24:30.988Z,36.83
2019-02-26T01:25:29.881Z,37.11
2019-02-26T01:26:29.849Z,37.21
2019-02-26T01:27:29.838Z,37.11
2019-02-26T01:28:29.827Z,36.41
2019-02-26T01:29:30.637Z,35.91
2019-02-26T01:30:31.816Z,35.91
2019-02-26T01:31:31.692Z,36.11
2019-02-26T01:32:29.782Z,35.91
2019-02-26T01:33:31.952Z,36.21
2019-02-26T01:34:29.759Z,36.21
2019-02-26T01:35:30.753Z,35.81
2019-02-26T01:36:29.755Z,36.51
2019-02-26T01:37:30.409Z,36.61
2019-02-26T01:38:29.717Z,35.81
2019-02-26T01:39:29.705Z,35.91
2019-02-26T01:40:29.691Z,35.81
2019-02-26T01:41:29.697Z,36.01
2019-02-26T01:42:31.594Z,35.81
2019-02-26T01:43:29.663Z,35.81
2019-02-26T01:44:32.340Z,35.81
2019-02-26T01:45:31.778Z,35.81
2019-02-26T01:46:29.991Z,36.01
2019-02-26T01:47:29.615Z,36.31
2019-02-26T01:48:30.360Z,36.31
2019-02-26T01:49:29.591Z,36.01
2019-02-26T01:50:30.891Z,36.01
2019-02-26T01:51:29.588Z,36.01
2019-02-26T01:52:29.560Z,35.91
2019-02-26T01:53:29.548Z,35.99
2019-02-26T01:54:30.540Z,36.21
2019-02-26T01:55:29.529Z,35.91
2019-02-26T01:56:29.552Z,36.11
2019-02-26T01:57:29.502Z,35.99
2019-02-26T01:58:33.424Z,36.21
2019-02-26T01:59:31.716Z,36.01
2019-02-26T02:00:29.479Z,36.01
2019-02-26T02:01:29.460Z,36.01
2019-02-26T02:02:30.310Z,36.01
2019-02-26T02:03:30.233Z,36.01
2019-02-26T02:04:29.426Z,36.01
2019-02-26T02:05:31.292Z,35.81
2019-02-26T02:06:30.340Z,35.61
2019-02-26T02:07:30.622Z,36.41
2019-02-26T02:08:29.380Z,35.71
2019-02-26T02:09:29.369Z,35.81
2019-02-26T02:10:29.358Z,35.91
2019-02-26T02:11:31.125Z,35.91
2019-02-26T02:12:30.118Z,35.81
2019-02-26T02:13:30.554Z,36.01
2019-02-26T02:14:29.315Z,36.41
2019-02-26T02:15:29.303Z,36.31
2019-02-26T02:16:31.340Z,36.41
2019-02-26T02:17:30.929Z,35.91
2019-02-26T02:18:29.886Z,36.31
2019-02-26T02:19:30.197Z,36.51
2019-02-26T02:20:29.247Z,36.41
2019-02-26T02:21:31.477Z,36.51
2019-02-26T02:22:29.609Z,36.51
2019-02-26T02:23:30.326Z,36.61
2019-02-26T02:24:29.212Z,36.61
2019-02-26T02:25:33.187Z,36.21
2019-02-26T02:26:29.179Z,36.43
2019-02-26T02:27:31.044Z,36.63
2019-02-26T02:28:31.034Z,36.13
2019-02-26T02:29:29.164Z,36.11
2019-02-26T02:30:31.402Z,36.13
2019-02-26T02:31:31.383Z,35.91
2019-02-26T02:32:31.721Z,35.93
2019-02-26T02:33:30.084Z,35.93
2019-02-26T02:34:30.184Z,36.23
2019-02-26T02:35:29.081Z,36.43
2019-02-26T02:36:29.080Z,35.83
2019-02-26T02:37:30.087Z,37.21
2019-02-26T02:38:29.051Z,36.83
2019-02-26T02:39:29.273Z,37.23
2019-02-26T02:40:29.029Z,36.33
2019-02-26T02:41:29.017Z,36.23
2019-02-26T02:42:29.026Z,37.13
2019-02-26T02:43:28.993Z,36.83
2019-02-26T02:44:28.981Z,36.83
2019-02-26T02:45:28.968Z,36.33
2019-02-26T02:46:28.956Z,36.73
2019-02-26T02:47:31.598Z,36.43
2019-02-26T02:48:28.941Z,35.91
2019-02-26T02:49:29.612Z,36.11
2019-02-26T02:50:28.912Z,36.13
2019-02-26T02:51:31.269Z,35.91
2019-02-26T02:52:30.356Z,36.31
2019-02-26T02:53:30.216Z,36.31
2019-02-26T02:54:28.877Z,36.61
2019-02-26T02:55:28.858Z,36.61
2019-02-26T02:56:30.737Z,36.61
2019-02-26T02:57:30.038Z,36.61
2019-02-26T02:58:28.838Z,36.51
2019-02-26T02:59:31.018Z,36.11
2019-02-26T03:00:32.146Z,36.51
2019-02-26T03:01:28.820Z,36.51
2019-02-26T03:02:28.780Z,36.51
2019-02-26T03:03:28.797Z,36.11
2019-02-26T03:04:31.192Z,35.81
2019-02-26T03:05:32.072Z,35.91
2019-02-26T03:06:30.543Z,36.01
2019-02-26T03:07:29.449Z,36.01
2019-02-26T03:08:28.727Z,36.41
2019-02-26T03:09:28.701Z,35.91
2019-02-26T03:10:31.025Z,36.41
2019-02-26T03:11:29.679Z,36.01
2019-02-26T03:12:28.676Z,36.41
2019-02-26T03:13:28.672Z,36.31
2019-02-26T03:14:32.466Z,36.01
2019-02-26T03:15:30.017Z,36.51
2019-02-26T03:16:28.623Z,36.51
2019-02-26T03:17:28.611Z,36.31
2019-02-26T03:18:28.622Z,35.81
2019-02-26T03:19:29.730Z,36.61
2019-02-26T03:20:30.830Z,36.21
2019-02-26T03:21:30.497Z,36.01
2019-02-26T03:22:28.558Z,35.91
2019-02-26T03:23:28.584Z,36.31
2019-02-26T03:24:30.860Z,36.01
2019-02-26T03:25:29.155Z,36.61
2019-02-26T03:26:28.512Z,35.81
2019-02-26T03:27:31.374Z,36.13
2019-02-26T03:28:32.721Z,36.33
2019-02-26T03:29:29.477Z,36.11
2019-02-26T03:30:33.989Z,36.23
2019-02-26T03:31:34.544Z,35.93
2019-02-26T03:32:29.446Z,36.43
2019-02-26T03:33:28.450Z,36.73
2019-02-26T03:34:28.437Z,36.43
2019-02-26T03:35:28.412Z,36.03
2019-02-26T03:36:28.416Z,36.23
2019-02-26T03:37:29.236Z,36.83
2019-02-26T03:38:28.911Z,36.43
2019-02-26T03:39:28.367Z,37.23
2019-02-26T03:40:30.071Z,36.33
2019-02-26T03:41:31.015Z,36.83
2019-02-26T03:42:28.332Z,37.13
2019-02-26T03:43:29.279Z,36.83
2019-02-26T03:44:30.300Z,36.93
2019-02-26T03:45:28.309Z,36.93
2019-02-26T03:46:28.287Z,36.53
2019-02-26T03:47:28.279Z,36.93
2019-02-26T03:48:28.286Z,37.23
2019-02-26T03:49:28.268Z,36.43
2019-02-26T03:50:28.244Z,36.83
2019-02-26T03:51:28.232Z,36.03
2019-02-26T03:52:28.983Z,36.43
2019-02-26T03:53:30.511Z,36.43
2019-02-26T03:54:28.199Z,36.43
2019-02-26T03:55:30.787Z,36.03
2019-02-26T03:56:28.178Z,36.83
2019-02-26T03:57:28.166Z,37.23
2019-02-26T03:58:28.174Z,36.83
2019-02-26T03:59:28.145Z,36.43
2019-02-26T04:00:28.133Z,36.13
2019-02-26T04:01:28.127Z,36.73
2019-02-26T04:02:28.110Z,35.93
2019-02-26T04:03:29.659Z,36.23
2019-02-26T04:04:28.890Z,36.33
2019-02-26T04:05:28.076Z,36.33
2019-02-26T04:06:28.064Z,36.43
2019-02-26T04:07:30.179Z,36.63
2019-02-26T04:08:30.198Z,36.53
2019-02-26T04:09:28.032Z,36.63
2019-02-26T04:10:28.021Z,35.93
2019-02-26T04:11:28.014Z,35.93
2019-02-26T04:12:27.998Z,35.73
2019-02-26T04:13:28.011Z,35.83
2019-02-26T04:14:28.754Z,36.13
2019-02-26T04:15:31.048Z,35.93
2019-02-26T04:16:29.653Z,36.23
2019-02-26T04:17:30.290Z,36.13
2019-02-26T04:18:27.946Z,36.63
2019-02-26T04:19:27.935Z,36.33
2019-02-26T04:20:28.019Z,36.43
2019-02-26T04:21:27.897Z,36.23
2019-02-26T04:22:27.888Z,36.13
2019-02-26T04:23:27.880Z,36.13
2019-02-26T04:24:29.891Z,36.11
2019-02-26T04:25:30.614Z,36.33
2019-02-26T04:26:29.559Z,36.23
2019-02-26T04:27:28.259Z,36.33
2019-02-26T04:28:32.970Z,36.33
2019-02-26T04:29:28.823Z,36.41
2019-02-26T04:30:27.797Z,36.33
2019-02-26T04:31:27.795Z,36.63
2019-02-26T04:32:27.774Z,36.41
2019-02-26T04:33:30.049Z,36.73
2019-02-26T04:34:27.771Z,36.33
2019-02-26T04:35:27.742Z,36.23
2019-02-26T04:36:27.733Z,36.23
2019-02-26T04:37:30.153Z,36.23
2019-02-26T04:38:29.096Z,36.63
2019-02-26T04:39:27.712Z,36.23
2019-02-26T04:40:30.261Z,36.33
2019-02-26T04:41:27.683Z,36.13
2019-02-26T04:42:27.665Z,36.33
2019-02-26T04:43:27.926Z,36.33
2019-02-26T04:44:29.259Z,36.43
2019-02-26T04:45:27.632Z,36.23
2019-02-26T04:46:28.892Z,36.33
2019-02-26T04:47:30.857Z,36.23
2019-02-26T04:48:29.238Z,36.63
2019-02-26T04:49:30.158Z,36.23
2019-02-26T04:50:32.230Z,36.23
2019-02-26T04:51:27.563Z,36.43
2019-02-26T04:52:29.354Z,36.33
2019-02-26T04:53:28.735Z,36.33
2019-02-26T04:54:30.249Z,36.33
2019-02-26T04:55:29.757Z,36.33
2019-02-26T04:56:31.265Z,36.43
2019-02-26T04:57:28.497Z,36.23
2019-02-26T04:58:27.484Z,36.23
2019-02-26T04:59:29.776Z,36.33
2019-02-26T05:00:29.929Z,36.33
2019-02-26T05:01:28.451Z,36.13
2019-02-26T05:02:27.448Z,36.13
2019-02-26T05:03:27.429Z,36.33
2019-02-26T05:04:28.245Z,36.23
2019-02-26T05:05:30.662Z,36.33
2019-02-26T05:06:27.395Z,36.33
2019-02-26T05:07:27.385Z,36.53
2019-02-26T05:08:29.230Z,36.33
2019-02-26T05:09:29.797Z,36.43
2019-02-26T05:10:29.040Z,36.03
2019-02-26T05:11:31.772Z,36.03
2019-02-26T05:12:30.879Z,36.03
2019-02-26T05:13:30.062Z,36.03
2019-02-26T05:14:27.313Z,36.03
2019-02-26T05:15:30.063Z,36.13
2019-02-26T05:16:29.489Z,35.93
2019-02-26T05:17:30.257Z,36.13
2019-02-26T05:18:29.082Z,36.03
2019-02-26T05:19:27.248Z,35.93
2019-02-26T05:20:27.262Z,36.63
2019-02-26T05:21:29.841Z,36.03
2019-02-26T05:22:28.318Z,35.93
2019-02-26T05:23:30.423Z,36.03
2019-02-26T05:24:27.194Z,36.03
2019-02-26T05:25:27.238Z,36.03
2019-02-26T05:26:27.181Z,36.43
2019-02-26T05:27:27.164Z,36.33
2019-02-26T05:28:27.146Z,36.33
2019-02-26T05:29:27.134Z,36.33
2019-02-26T05:30:27.138Z,36.13
2019-02-26T05:31:29.499Z,36.33
2019-02-26T05:32:29.883Z,36.33
2019-02-26T05:33:28.535Z,36.21
2019-02-26T05:34:27.080Z,36.13
2019-02-26T05:35:27.088Z,35.93
2019-02-26T05:36:28.300Z,35.93
2019-02-26T05:37:29.195Z,35.83
2019-02-26T05:38:29.666Z,36.01
2019-02-26T05:39:28.825Z,35.21
2019-02-26T05:40:27.028Z,35.33
2019-02-26T05:41:26.999Z,35.33
2019-02-26T05:42:26.988Z,35.33
2019-02-26T05:43:28.206Z,35.13
2019-02-26T05:44:26.968Z,35.31
2019-02-26T05:45:29.321Z,35.43
2019-02-26T05:46:29.373Z,35.23
2019-02-26T05:47:26.931Z,35.53
2019-02-26T05:48:26.926Z,35.43
2019-02-26T05:49:26.917Z,35.43
2019-02-26T05:50:26.913Z,35.53
2019-02-26T05:51:27.928Z,34.63
2019-02-26T05:52:28.121Z,34.23
2019-02-26T05:53:26.864Z,33.62
2019-02-26T05:54:26.854Z,33.73
2019-02-26T05:55:28.245Z,33.62
2019-02-26T05:56:26.829Z,33.83
2019-02-26T05:57:32.380Z,33.54
2019-02-26T05:58:27.806Z,33.94
2019-02-26T05:59:26.797Z,34.55
2019-02-26T06:00:30.601Z,33.94
2019-02-26T06:01:27.910Z,34.05
2019-02-26T06:02:26.764Z,33.74
2019-02-26T06:03:26.765Z,33.04
2019-02-26T06:04:26.750Z,33.54
2019-02-26T06:05:26.761Z,33.06
2019-02-26T06:06:26.718Z,33.56
2019-02-26T06:07:28.086Z,33.46
2019-02-26T06:08:32.328Z,33.46
2019-02-26T06:09:30.311Z,33.56
2019-02-26T06:10:27.219Z,33.26
2019-02-26T06:11:30.855Z,33.58
2019-02-26T06:12:27.656Z,33.67
2019-02-26T06:13:28.926Z,33.67
2019-02-26T06:14:27.547Z,33.37
2019-02-26T06:15:28.891Z,33.47
2019-02-26T06:16:28.509Z,33.66
2019-02-26T06:17:26.591Z,33.66
2019-02-26T06:18:26.583Z,33.76
2019-02-26T06:19:26.569Z,33.56
2019-02-26T06:20:28.792Z,33.36
2019-02-26T06:21:26.578Z,33.26
2019-02-26T06:22:29.001Z,32.86
2019-02-26T06:23:28.276Z,33.06
2019-02-26T06:24:27.095Z,33.16
2019-02-26T06:25:26.502Z,32.96
2019-02-26T06:26:30.343Z,33.56
2019-02-26T06:27:27.538Z,33.56
2019-02-26T06:28:26.467Z,33.66
2019-02-26T06:29:27.403Z,33.16
2019-02-26T06:30:26.454Z,32.96
2019-02-26T06:31:26.448Z,33.26
2019-02-26T06:32:30.014Z,33.06
2019-02-26T06:33:31.880Z,32.86
2019-02-26T06:34:27.395Z,33.36
2019-02-26T06:35:26.389Z,32.86
2019-02-26T06:36:28.135Z,32.56
2019-02-26T06:37:28.447Z,33.26
2019-02-26T06:38:28.079Z,33.56
2019-02-26T06:39:26.938Z,33.58
2019-02-26T06:40:26.330Z,33.46
2019-02-26T06:41:26.337Z,33.36
2019-02-26T06:42:28.289Z,33.66
2019-02-26T06:43:26.297Z,33.58
2019-02-26T06:44:26.285Z,33.58
2019-02-26T06:45:26.286Z,33.58
2019-02-26T06:46:28.471Z,33.28
2019-02-26T06:47:28.535Z,33.67
2019-02-26T06:48:27.577Z,33.78
2019-02-26T06:49:26.900Z,33.47
2019-02-26T06:50:26.216Z,33.36
2019-02-26T06:51:28.136Z,33.47
2019-02-26T06:52:26.213Z,33.36
2019-02-26T06:53:26.207Z,32.97
2019-02-26T06:54:27.126Z,33.07
2019-02-26T06:55:26.159Z,32.96
2019-02-26T06:56:26.147Z,33.16
2019-02-26T06:57:26.162Z,32.47
2019-02-26T06:58:26.125Z,33.16
2019-02-26T06:59:27.248Z,32.97
2019-02-26T07:00:27.480Z,32.67
2019-02-26T07:01:26.091Z,32.77
2019-02-26T07:02:29.000Z,32.76
2019-02-26T07:03:26.074Z,33.16
2019-02-26T07:04:27.037Z,32.86
2019-02-26T07:05:26.045Z,32.87
2019-02-26T07:06:27.713Z,32.77
2019-02-26T07:07:26.037Z,32.26
2019-02-26T07:08:28.497Z,32.15
2019-02-26T07:09:26.006Z,32.15
2019-02-26T07:10:28.591Z,32.37
2019-02-26T07:11:27.983Z,32.35
2019-02-26T07:12:26.481Z,31.96
2019-02-26T07:13:25.953Z,32.67
2019-02-26T07:14:27.368Z,32.37
2019-02-26T07:15:28.803Z,32.37
2019-02-26T07:16:25.918Z,32.37
2019-02-26T07:17:26.870Z,32.76
2019-02-26T07:18:25.901Z,32.35
2019-02-26T07:19:26.592Z,32.46
2019-02-26T07:20:33.860Z,32.87
2019-02-26T07:21:26.871Z,33.16
2019-02-26T07:22:25.865Z,33.46
2019-02-26T07:23:29.267Z,33.06
2019-02-26T07:24:27.164Z,32.26
2019-02-26T07:25:25.816Z,32.35
2019-02-26T07:26:25.805Z,32.56
2019-02-26T07:27:26.500Z,32.56
2019-02-26T07:28:26.866Z,32.56
2019-02-26T07:29:25.770Z,32.35
2019-02-26T07:30:25.758Z,32.35
2019-02-26T07:31:26.511Z,32.46
2019-02-26T07:32:25.776Z,33.76
2019-02-26T07:33:27.486Z,33.06
2019-02-26T07:34:27.366Z,32.86
2019-02-26T07:35:25.700Z,33.06
2019-02-26T07:36:27.665Z,33.66
2019-02-26T07:37:25.683Z,33.26
2019-02-26T07:38:27.551Z,33.66
2019-02-26T07:39:25.676Z,33.36
2019-02-26T07:40:27.789Z,32.96
2019-02-26T07:41:27.845Z,33.16
2019-02-26T07:42:25.631Z,33.56
2019-02-26T07:43:25.626Z,33.16
2019-02-26T07:44:27.934Z,33.04
2019-02-26T07:45:27.312Z,33.34
2019-02-26T07:46:25.576Z,33.54
2019-02-26T07:47:26.528Z,33.54
2019-02-26T07:48:27.147Z,33.36
2019-02-26T07:49:25.545Z,33.36
2019-02-26T07:50:25.555Z,33.14
2019-02-26T07:51:25.519Z,33.24
2019-02-26T07:52:26.566Z,32.84
2019-02-26T07:53:25.514Z,33.54
2019-02-26T07:54:25.487Z,33.34
2019-02-26T07:55:27.471Z,33.64
2019-02-26T07:56:27.427Z,33.54
2019-02-26T07:57:27.542Z,34.14
2019-02-26T07:58:25.455Z,34.14
2019-02-26T07:59:27.822Z,33.54
2019-02-26T08:00:25.421Z,34.05
2019-02-26T08:01:25.412Z,34.24
2019-02-26T08:02:27.439Z,33.74
2019-02-26T08:03:26.854Z,33.84
2019-02-26T08:04:25.374Z,33.73
2019-02-26T08:05:26.784Z,34.24
2019-02-26T08:06:26.810Z,34.24
2019-02-26T08:07:26.765Z,33.84
2019-02-26T08:08:25.352Z,34.23
2019-02-26T08:09:25.319Z,34.12
2019-02-26T08:10:25.332Z,33.93
2019-02-26T08:11:25.295Z,34.12
2019-02-26T08:12:25.285Z,33.62
2019-02-26T08:13:28.533Z,33.93
2019-02-26T08:14:25.738Z,33.73
2019-02-26T08:15:25.249Z,33.43
2019-02-26T08:16:27.278Z,34.12
2019-02-26T08:17:25.226Z,33.93
2019-02-26T08:18:25.243Z,34.12
2019-02-26T08:19:29.543Z,34.03
2019-02-26T08:20:25.200Z,34.12
2019-02-26T08:21:26.981Z,33.43
2019-02-26T08:22:27.011Z,33.43
2019-02-26T08:23:26.347Z,33.62
2019-02-26T08:24:25.167Z,33.43
2019-02-26T08:25:25.136Z,33.62
2019-02-26T08:26:26.741Z,33.43
2019-02-26T08:27:26.281Z,34.23
2019-02-26T08:28:25.105Z,34.53
2019-02-26T08:29:27.225Z,34.43
2019-02-26T08:30:26.139Z,34.53
2019-02-26T08:31:25.996Z,33.43
2019-02-26T08:32:26.184Z,33.43
2019-02-26T08:33:25.048Z,34.33
2019-02-26T08:34:25.052Z,34.43
2019-02-26T08:35:25.026Z,34.61
2019-02-26T08:36:25.015Z,34.73
2019-02-26T08:37:25.003Z,34.93
2019-02-26T08:38:29.315Z,34.61
2019-02-26T08:39:26.009Z,34.41
2019-02-26T08:40:24.973Z,34.71
2019-02-26T08:41:24.962Z,34.73
2019-02-26T08:42:24.946Z,34.61
2019-02-26T08:43:24.935Z,34.51
2019-02-26T08:44:24.951Z,34.51
2019-02-26T08:45:25.762Z,34.71
2019-02-26T08:46:24.904Z,34.61
2019-02-26T08:47:24.892Z,34.61
2019-02-26T08:48:26.946Z,34.51
2019-02-26T08:49:24.894Z,34.71
2019-02-26T08:50:28.538Z,34.61
2019-02-26T08:51:25.845Z,34.41
2019-02-26T08:52:26.916Z,33.41
2019-02-26T08:53:26.485Z,33.51
2019-02-26T08:54:26.163Z,34.61
2019-02-26T08:55:24.803Z,34.41
2019-02-26T08:56:26.207Z,33.41
2019-02-26T08:57:24.780Z,34.41
2019-02-26T08:58:25.832Z,34.41
2019-02-26T08:59:24.777Z,34.41
2019-02-26T09:00:24.746Z,33.61
2019-02-26T09:01:24.734Z,33.41
2019-02-26T09:02:24.732Z,33.61
2019-02-26T09:03:24.714Z,33.41
2019-02-26T09:04:24.717Z,34.51
2019-02-26T09:05:26.316Z,34.53
2019-02-26T09:06:24.682Z,34.63
2019-02-26T09:07:26.277Z,34.71
2019-02-26T09:08:24.659Z,34.71
2019-02-26T09:09:25.903Z,34.71
2019-02-26T09:10:24.638Z,34.81
2019-02-26T09:11:26.137Z,34.51
2019-02-26T09:12:27.066Z,34.51
2019-02-26T09:13:25.561Z,34.81
2019-02-26T09:14:24.623Z,34.71
2019-02-26T09:15:24.581Z,34.71
2019-02-26T09:16:25.671Z,34.50
2019-02-26T09:17:26.804Z,34.69
2019-02-26T09:18:28.020Z,35.01
2019-02-26T09:19:25.292Z,34.69
2019-02-26T09:20:24.541Z,34.39
2019-02-26T09:21:24.512Z,34.59
2019-02-26T09:22:26.128Z,34.39
2019-02-26T09:23:25.820Z,34.09
2019-02-26T09:24:24.502Z,34.39
2019-02-26T09:25:28.166Z,34.39
2019-02-26T09:26:24.457Z,34.59
2019-02-26T09:27:26.707Z,34.50
2019-02-26T09:28:26.599Z,33.50
2019-02-26T09:29:24.445Z,34.39
2019-02-26T09:30:24.429Z,33.89
2019-02-26T09:31:24.400Z,33.70
2019-02-26T09:32:24.390Z,33.89
2019-02-26T09:33:27.722Z,33.59
2019-02-26T09:34:26.661Z,33.70
2019-02-26T09:35:28.389Z,33.89
2019-02-26T09:36:26.210Z,33.80
2019-02-26T09:37:24.335Z,33.70
2019-02-26T09:38:25.542Z,34.09
2019-02-26T09:39:24.315Z,33.80
2019-02-26T09:40:26.466Z,33.50
2019-02-26T09:41:24.289Z,33.00
2019-02-26T09:42:25.583Z,33.39
2019-02-26T09:43:24.513Z,33.50
2019-02-26T09:44:26.100Z,33.20
2019-02-26T09:45:28.663Z,33.70
2019-02-26T09:46:25.236Z,33.20
2019-02-26T09:47:26.052Z,33.89
2019-02-26T09:48:24.212Z,33.29
2019-02-26T09:49:26.209Z,33.20
2019-02-26T09:50:24.248Z,33.70
2019-02-26T09:51:24.186Z,33.29
2019-02-26T09:52:27.207Z,33.50
2019-02-26T09:53:24.155Z,33.59
2019-02-26T09:54:24.149Z,33.51
2019-02-26T09:55:24.149Z,33.50
2019-02-26T09:56:24.137Z,33.59
2019-02-26T09:57:25.932Z,33.59
2019-02-26T09:58:25.336Z,33.59
2019-02-26T09:59:24.090Z,33.00
2019-02-26T10:00:27.186Z,33.00
2019-02-26T10:01:25.067Z,33.89
2019-02-26T10:02:26.011Z,34.01
2019-02-26T10:03:24.085Z,33.09
2019-02-26T10:04:26.052Z,34.11
2019-02-26T10:05:24.048Z,33.59
2019-02-26T10:06:24.012Z,34.11
2019-02-26T10:07:26.082Z,33.59
2019-02-26T10:08:25.341Z,34.00
2019-02-26T10:09:23.979Z,33.80
2019-02-26T10:10:27.603Z,33.80
2019-02-26T10:11:27.411Z,34.19
2019-02-26T10:12:23.945Z,34.19
2019-02-26T10:13:25.177Z,34.19
2019-02-26T10:14:23.922Z,34.19
2019-02-26T10:15:23.929Z,34.19
2019-02-26T10:16:25.631Z,34.09
2019-02-26T10:17:23.911Z,34.19
2019-02-26T10:18:25.641Z,34.39
2019-02-26T10:19:23.867Z,33.89
2019-02-26T10:20:27.878Z,34.50
2019-02-26T10:21:23.853Z,33.70
2019-02-26T10:22:26.058Z,34.19
2019-02-26T10:23:24.117Z,34.50
2019-02-26T10:24:27.207Z,34.19
2019-02-26T10:25:25.711Z,34.19
2019-02-26T10:26:26.099Z,34.39
2019-02-26T10:27:23.778Z,34.39
2019-02-26T10:28:23.767Z,33.80
2019-02-26T10:29:23.762Z,33.70
2019-02-26T10:30:23.746Z,34.09
2019-02-26T10:31:25.081Z,33.89
2019-02-26T10:32:24.284Z,34.09
2019-02-26T10:33:23.711Z,33.80
2019-02-26T10:34:28.091Z,34.00
2019-02-26T10:35:32.534Z,33.68
2019-02-26T10:36:24.691Z,33.70
2019-02-26T10:37:23.670Z,34.09
2019-02-26T10:38:24.204Z,33.80
2019-02-26T10:39:25.560Z,33.68
2019-02-26T10:40:23.634Z,34.08
2019-02-26T10:41:23.638Z,33.88
2019-02-26T10:42:23.610Z,33.88
2019-02-26T10:43:23.602Z,33.68
2019-02-26T10:44:23.616Z,34.38
2019-02-26T10:45:23.599Z,33.68
2019-02-26T10:46:23.601Z,34.38
2019-02-26T10:47:25.144Z,33.78
2019-02-26T10:48:25.176Z,33.88
2019-02-26T10:49:23.548Z,34.48
2019-02-26T10:50:25.574Z,33.88
2019-02-26T10:51:27.067Z,34.38
2019-02-26T10:52:24.057Z,34.38
2019-02-26T10:53:23.573Z,33.88
2019-02-26T10:54:23.487Z,34.38
2019-02-26T10:55:28.137Z,33.98
2019-02-26T10:56:27.965Z,33.78
2019-02-26T10:57:23.460Z,33.78
2019-02-26T10:58:23.436Z,34.08
2019-02-26T10:59:23.587Z,33.98
2019-02-26T11:00:25.957Z,33.88
2019-02-26T11:01:25.443Z,33.98
2019-02-26T11:02:25.674Z,33.88
2019-02-26T11:03:23.384Z,33.88
2019-02-26T11:04:23.421Z,33.88
2019-02-26T11:05:26.259Z,33.88
2019-02-26T11:06:23.395Z,34.08
2019-02-26T11:07:23.337Z,33.68
2019-02-26T11:08:26.359Z,34.08
2019-02-26T11:09:26.387Z,33.68
2019-02-26T11:10:25.223Z,33.68
2019-02-26T11:11:23.320Z,33.88
2019-02-26T11:12:25.170Z,33.78
2019-02-26T11:13:25.672Z,33.68
2019-02-26T11:14:23.285Z,33.88
2019-02-26T11:15:24.471Z,33.88
2019-02-26T11:16:25.346Z,33.76
2019-02-26T11:17:23.666Z,33.88
2019-02-26T11:18:23.583Z,33.56
2019-02-26T11:19:25.287Z,34.16
2019-02-26T11:20:27.057Z,33.56
2019-02-26T11:21:23.181Z,33.56
2019-02-26T11:22:25.183Z,33.66
2019-02-26T11:23:30.391Z,33.56
2019-02-26T11:24:25.813Z,33.66
2019-02-26T11:25:24.853Z,33.84
2019-02-26T11:26:23.143Z,34.25
2019-02-26T11:27:23.143Z,34.05
2019-02-26T11:28:27.250Z,33.35
2019-02-26T11:29:23.111Z,33.45
2019-02-26T11:30:25.883Z,33.45
2019-02-26T11:31:25.512Z,33.83
2019-02-26T11:32:23.083Z,33.43
2019-02-26T11:33:23.051Z,32.73
2019-02-26T11:34:25.319Z,32.92
2019-02-26T11:35:24.531Z,33.22
2019-02-26T11:36:25.027Z,33.22
2019-02-26T11:37:24.820Z,32.80
2019-02-26T11:38:23.057Z,33.00
2019-02-26T11:39:22.987Z,33.00
2019-02-26T11:40:24.804Z,33.08
2019-02-26T11:41:23.911Z,32.48
2019-02-26T11:42:24.167Z,32.39
2019-02-26T11:43:25.988Z,32.39
2019-02-26T11:44:25.283Z,31.97
2019-02-26T11:45:22.951Z,32.17
2019-02-26T11:46:24.770Z,30.96
2019-02-26T11:47:22.939Z,31.36
2019-02-26T11:48:24.122Z,31.74
2019-02-26T11:49:22.890Z,31.54
2019-02-26T11:50:26.918Z,31.15
2019-02-26T11:51:23.849Z,31.33
2019-02-26T11:52:22.873Z,30.43
2019-02-26T11:53:22.840Z,31.12
2019-02-26T11:54:22.819Z,30.52
2019-02-26T11:55:23.651Z,30.90
2019-02-26T11:56:25.499Z,29.51
2019-02-26T11:57:22.806Z,29.81
2019-02-26T11:58:24.289Z,29.90
2019-02-26T11:59:22.760Z,30.09
2019-02-26T12:00:25.669Z,29.58
2019-02-26T12:01:22.743Z,29.48
2019-02-26T12:02:26.246Z,29.67
2019-02-26T12:03:27.199Z,28.97
2019-02-26T12:04:22.723Z,29.47
2019-02-26T12:05:24.965Z,29.36
2019-02-26T12:06:23.711Z,29.25
2019-02-26T12:07:24.723Z,29.25
2019-02-26T12:08:25.064Z,29.16
2019-02-26T12:09:22.683Z,29.36
2019-02-26T12:10:22.661Z,28.35
2019-02-26T12:11:23.312Z,28.85
2019-02-26T12:12:23.507Z,28.23
2019-02-26T12:13:25.003Z,28.73
2019-02-26T12:14:22.596Z,28.63
2019-02-26T12:15:22.585Z,27.73
2019-02-26T12:16:22.574Z,27.53
2019-02-26T12:17:22.565Z,27.91
2019-02-26T12:18:22.579Z,28.21
2019-02-26T12:19:23.097Z,28.01
2019-02-26T12:20:24.232Z,28.11
2019-02-26T12:21:22.521Z,28.01
2019-02-26T12:22:23.166Z,28.01
2019-02-26T12:23:22.889Z,27.81
2019-02-26T12:24:24.205Z,27.21
2019-02-26T12:25:22.488Z,28.39
2019-02-26T12:26:25.563Z,27.70
2019-02-26T12:27:23.761Z,27.50
2019-02-26T12:28:22.473Z,27.39
2019-02-26T12:29:23.571Z,27.09
2019-02-26T12:30:22.440Z,27.00
2019-02-26T12:31:24.542Z,26.89
2019-02-26T12:32:24.917Z,26.98
2019-02-26T12:33:22.405Z,26.89
2019-02-26T12:34:23.629Z,27.07
2019-02-26T12:35:22.381Z,26.28
2019-02-26T12:36:23.766Z,26.17
2019-02-26T12:37:22.359Z,26.26
2019-02-26T12:38:22.377Z,26.75
2019-02-26T12:39:25.159Z,26.26
2019-02-26T12:40:25.317Z,25.96
2019-02-26T12:41:22.301Z,26.25
2019-02-26T12:42:22.307Z,25.56
2019-02-26T12:43:22.309Z,25.76
2019-02-26T12:44:22.292Z,25.95
2019-02-26T12:45:22.281Z,25.84
2019-02-26T12:46:24.346Z,25.65
2019-02-26T12:47:24.659Z,25.63
2019-02-26T12:48:22.821Z,25.44
2019-02-26T12:49:22.590Z,25.44
2019-02-26T12:50:23.786Z,25.83
2019-02-26T12:51:22.597Z,25.44
2019-02-26T12:52:26.473Z,25.83